Time;durP1;ratioP1;P1;durP2;ratioP2;P2;SDS_P1;SDS_P2;PMS_P1;PMS_P2;Temp;Humidity;BMP_temperature;BMP_pressure;BME280_temperature;BME280_humidity;BME280_pressure;Samples;Min_cycle;Max_cycle;Signal;HPM_P1;HPM_P2
2022/04/17 00:00:15;;;;;;;4.63;2.70;;;;;;;;;;4825477;29;20403;-68
2022/04/17 00:02:42;;;;;;;3.60;2.60;;;;;;;;;;4825679;29;20488;-67
2022/04/17 00:05:08;;;;;;;4.60;2.50;;;;;;;;;;4825660;29;20395;-67
2022/04/17 00:07:35;;;;;;;4.72;2.80;;;;;;;;;;4825531;29;20384;-66
2022/04/17 00:10:02;;;;;;;5.20;2.78;;;;;;;;;;4825168;29;20423;-75
2022/04/17 00:12:29;;;;;;;6.15;2.95;;;;;;;;;;4839390;29;20457;-75
2022/04/17 00:14:55;;;;;;;4.75;2.70;;;;;;;;;;4825248;29;20388;-66
2022/04/17 00:17:22;;;;;;;5.70;2.80;;;;;;;;;;4825034;29;20391;-67
2022/04/17 00:19:48;;;;;;;5.43;2.83;;;;;;;;;;4824855;29;20397;-66
2022/04/17 00:22:14;;;;;;;4.60;2.83;;;;;;;;;;4825987;29;20384;-66
2022/04/17 00:24:42;;;;;;;4.65;2.80;;;;;;;;;;4825552;29;20388;-66
2022/04/17 00:27:08;;;;;;;6.72;2.92;;;;;;;;;;4825058;29;20388;-66
2022/04/17 00:29:35;;;;;;;4.85;3.00;;;;;;;;;;4838816;29;20392;-66
2022/04/17 00:32:01;;;;;;;4.13;2.70;;;;;;;;;;4825179;29;20412;-75
2022/04/17 00:34:29;;;;;;;4.90;2.90;;;205.60;2099.20;;;;;;4824766;29;20446;-66
2022/04/17 00:36:59;;;;;;;6.68;2.85;;;205.50;2124.80;;;;;;4824799;29;20488;-67
2022/04/17 00:39:26;;;;;;;5.30;2.83;;;205.40;2124.80;;;;;;4824777;29;20388;-67
2022/04/17 00:41:53;;;;;;;5.55;2.72;;;205.50;2124.80;;;;;;4824750;29;20507;-74
2022/04/17 00:44:19;;;;;;;6.57;2.80;;;205.40;2150.40;;;;;;4824980;29;20428;-67
2022/04/17 00:46:45;;;;;;;5.38;2.80;;;205.50;2150.40;;;;;;4824713;29;20427;-66
2022/04/17 00:49:11;;;;;;;5.28;3.15;;;205.50;2124.80;;;;;;4824589;29;20392;-67
2022/04/17 00:51:37;;;;;;;6.65;2.90;;;205.50;2150.40;;;;;;4824400;29;20887;-67
2022/04/17 00:54:06;;;;;;;3.97;2.80;;;205.50;2099.20;;;;;;4824494;29;20472;-67
2022/04/17 00:56:32;;;;;;;5.15;2.90;;;205.50;2124.80;;;;;;4824706;29;20400;-67
2022/04/17 00:58:58;;;;;;;6.53;2.97;;;205.50;2124.80;;;;;;4824438;29;20397;-75
2022/04/17 01:01:24;;;;;;;6.68;3.45;;;205.40;2150.40;;;;;;4824375;29;20399;-66
2022/04/17 01:03:50;;;;;;;6.28;3.47;;;205.40;2176.00;;;;;;4824336;29;20463;-72
2022/04/17 01:06:17;;;;;;;5.57;3.47;;;205.30;2201.60;;;;;;4824497;29;20479;-66
2022/04/17 01:08:44;;;;;;;6.67;3.50;;;;;;;;;;4824312;29;20392;-66
2022/04/17 01:11:11;;;;;;;5.17;3.70;;;;;;;;;;4824168;29;20430;-66
2022/04/17 01:13:41;;;;;;;5.38;3.15;;;205.10;2227.20;;;;;;4825237;29;20438;-66
2022/04/17 01:16:07;;;;;;;5.17;3.10;;;205.10;2252.80;;;;;;4807807;29;20508;-66
2022/04/17 01:18:52;;;;;;;4.87;3.10;;;205.00;2227.20;;;;;;4824457;29;20475;-66
2022/04/17 01:21:18;;;;;;;5.03;2.78;;;;;;;;;;4824101;29;20403;-67
2022/04/17 01:29:15;;;;;;;4.82;3.30;;;;;;;;;;4824004;29;20425;-66
2022/04/17 01:31:41;;;;;;;5.18;2.80;;;;;;;;;;4836965;29;20510;-67
2022/04/17 01:34:08;;;;;;;4.13;2.80;;;;;;;;;;4824180;29;20388;-67
2022/04/17 01:36:34;;;;;;;4.57;3.10;;;;;;;;;;4823933;29;20407;-68
2022/04/17 01:39:00;;;;;;;4.05;2.90;;;;;;;;;;4823953;29;20490;-75
2022/04/17 01:41:27;;;;;;;5.40;3.13;;;;;;;;;;4837738;29;20487;-66
2022/04/17 01:43:53;;;;;;;4.70;3.10;;;;;;;;;;4823851;29;20428;-68
2022/04/17 01:46:19;;;;;;;5.03;3.13;;;;;;;;;;4837648;29;20503;-66
2022/04/17 01:48:45;;;;;;;4.60;3.07;;;;;;;;;;4824014;29;20391;-66
2022/04/17 01:51:11;;;;;;;5.90;3.40;;;;;;;;;;4823728;29;20893;-77
2022/04/17 01:53:38;;;;;;;7.70;3.60;;;;;;;;;;4823982;29;20391;-66
2022/04/17 01:56:04;;;;;;;4.70;3.17;;;;;;;;;;4837605;29;20410;-67
2022/04/17 01:58:30;;;;;;;5.32;3.40;;;;;;;;;;4823666;29;20471;-67
2022/04/17 02:00:56;;;;;;;4.85;2.90;;;;;;;;;;4823618;29;20453;-74
2022/04/17 02:03:22;;;;;;;4.60;2.70;;;;;;;;;;4823760;29;20388;-66
2022/04/17 02:05:49;;;;;;;4.35;3.13;;;;;;;;;;4823799;29;20866;-68
2022/04/17 02:08:16;;;;;;;4.43;2.80;;;;;;;;;;4823510;29;20399;-66
2022/04/17 02:10:42;;;;;;;4.40;3.13;;;;;;;;;;4823427;29;20506;-77
2022/04/17 02:13:08;;;;;;;6.37;3.50;;;;;;;;;;4823455;29;20862;-67
2022/04/17 02:15:35;;;;;;;4.80;3.05;;;;;;;;;;4837426;29;20838;-74
2022/04/17 02:18:00;;;;;;;7.93;3.70;;;179.60;2252.80;;;;;;4824612;29;20436;-76
2022/04/17 02:20:26;;;;;;;4.93;3.13;;;179.60;2252.80;;;;;;4823373;29;20495;-65
2022/04/17 02:22:52;;;;;;;8.20;3.28;;;179.70;2252.80;;;;;;4823361;29;20392;-66
2022/04/17 02:25:18;;;;;;;7.97;3.40;;;179.60;2252.80;;;;;;4823310;29;20399;-65
2022/04/17 02:27:44;;;;;;;4.57;3.15;;;179.60;2252.80;;;;;;4823289;29;20392;-66
2022/04/17 02:30:10;;;;;;;5.33;3.43;;;179.60;2252.80;;;;;;4823187;29;20412;-66
2022/04/17 02:32:36;;;;;;;5.05;3.70;;;179.50;2252.80;;;;;;4823015;29;20415;-65
2022/04/17 02:35:03;;;;;;;4.15;3.08;;;179.50;2252.80;;;;;;4823238;29;20396;-72
2022/04/17 02:37:28;;;;;;;6.82;3.30;;;179.50;2252.80;;;;;;4823439;29;20400;-66
2022/04/17 02:39:56;;;;;;;4.57;3.33;;;179.50;2252.80;;;;;;4823151;29;20750;-65
2022/04/17 02:42:22;;;;;;;5.10;3.42;;;179.40;2252.80;;;;;;4824136;29;20439;-67
2022/04/17 02:44:48;;;;;;;4.88;3.20;;;179.40;2252.80;;;;;;4826513;29;20388;-66
2022/04/17 02:49:58;;;;;;;5.85;3.47;;;179.40;2252.80;;;;;;4826437;29;20414;-76
2022/04/17 02:52:24;;;;;;;5.43;3.67;;;179.40;2252.80;;;;;;4826439;29;20400;-65
2022/04/17 02:54:53;;;;;;;5.30;3.60;;;179.40;2252.80;;;;;;4826307;29;20388;-66
2022/04/17 02:57:18;;;;;;;5.97;3.50;;;179.30;2252.80;;;;;;4826365;29;20396;-66
2022/04/17 02:59:44;;;;;;;6.00;3.50;;;179.30;2252.80;;;;;;4826190;29;20403;-65
2022/04/17 03:07:39;;;;;;;5.28;3.83;;;179.20;2252.80;;;;;;4826207;29;20384;-65
2022/04/17 03:10:05;;;;;;;5.15;3.83;;;179.30;2252.80;;;;;;4809644;29;20420;-66
2022/04/17 03:12:31;;;;;;;6.05;4.07;;;179.20;2252.80;;;;;;4826027;29;20421;-70
2022/04/17 03:14:57;;;;;;;5.85;3.85;;;179.20;2252.80;;;;;;4809721;29;20796;-67
2022/04/17 03:17:24;;;;;;;6.90;4.05;;;179.20;2252.80;;;;;;4826185;29;20851;-64
2022/04/17 03:19:52;;;;;;;5.50;3.58;;;179.20;2252.80;;;;;;4825853;29;20401;-67
2022/04/17 03:22:21;;;;;;;5.32;3.75;;;179.20;2252.80;;;;;;4826082;29;20400;-65
2022/04/17 03:24:47;;;;;;;5.93;3.63;;;154.50;2252.80;;;;;;4826097;29;20890;-65
2022/04/17 03:27:13;;;;;;;5.70;3.53;;;179.20;2252.80;;;;;;4825804;29;20486;-66
2022/04/17 03:29:39;;;;;;;6.20;3.67;;;154.50;2252.80;;;;;;4825753;29;20521;-65
2022/04/17 03:32:05;;;;;;;5.07;3.45;;;154.50;2252.80;;;;;;4825579;29;20426;-66
2022/04/17 03:34:31;;;;;;;5.00;3.83;;;154.50;2252.80;;;;;;4809484;29;20392;-75
2022/04/17 03:37:00;;;;;;;4.88;3.55;;;154.50;2252.80;;;;;;4825867;29;20407;-74
2022/04/17 03:39:26;;;;;;;4.57;3.35;;;154.50;2252.80;;;;;;4825683;29;20388;-73
2022/04/17 03:41:53;;;;;;;4.78;3.22;;;154.50;2252.80;;;;;;4825604;29;20882;-75
2022/04/17 03:44:20;;;;;;;6.40;3.42;;;154.40;2252.80;;;;;;4825630;29;20892;-65
2022/04/17 03:46:47;;;;;;;4.97;3.22;;;154.40;2252.80;;;;;;4825609;29;20399;-66
2022/04/17 03:49:14;;;;;;;4.32;3.10;;;154.40;2252.80;;;;;;4825564;29;20409;-67
2022/04/17 03:51:40;;;;;;;4.10;3.20;;;154.40;2252.80;;;;;;4825399;29;20420;-75
2022/04/17 03:54:06;;;;;;;5.55;3.25;;;154.40;2252.80;;;;;;4825042;29;20742;-66
2022/04/17 03:56:32;;;;;;;6.22;3.20;;;154.30;2252.80;;;;;;4825288;29;20396;-65
2022/04/17 03:58:58;;;;;;;4.55;3.15;;;154.30;2252.80;;;;;;4825399;29;20391;-74
2022/04/17 04:01:26;;;;;;;6.27;3.43;;;154.30;2252.80;;;;;;4825569;29;20458;-66
2022/04/17 04:03:53;;;;;;;6.60;3.22;;;154.40;2252.80;;;;;;4825470;29;20442;-66
2022/04/17 04:06:20;;;;;;;4.07;3.03;;;154.40;2252.80;;;;;;4825271;29;20409;-65
2022/04/17 04:08:48;;;;;;;7.57;3.35;;;154.40;2252.80;;;;;;4825470;29;20425;-64
2022/04/17 04:11:15;;;;;;;5.13;3.53;;;154.40;2252.80;;;;;;4825328;29;20928;-65
2022/04/17 04:13:42;;;;;;;5.25;3.00;;;154.40;2252.80;;;;;;4825012;29;20762;-64
2022/04/17 04:16:08;;;;;;;6.28;4.18;;;154.30;2252.80;;;;;;4825370;29;20399;-75
2022/04/17 04:18:34;;;;;;;7.83;3.87;;;154.30;2252.80;;;;;;4825053;29;20462;-65
2022/04/17 04:21:00;;;;;;;5.45;3.25;;;154.30;2252.80;;;;;;4824933;29;20437;-75
2022/04/17 04:23:26;;;;;;;4.53;3.20;;;154.30;2252.80;;;;;;4825044;29;20392;-64
2022/04/17 04:25:52;;;;;;;4.40;3.08;;;154.40;2252.80;;;;;;4808667;29;20483;-65
2022/04/17 04:28:33;;;;;;;4.57;3.30;;;154.40;2252.80;;;;;;4825355;29;20467;-65
2022/04/17 04:31:07;;;;;;;4.25;3.22;;;154.40;2252.80;;;;;;4824806;29;20428;-66
2022/04/17 04:33:37;;;;;;;6.85;3.45;;;154.50;2252.80;;;;;;4824783;29;20576;-65
2022/04/17 04:36:05;;;;;;;4.57;3.30;;;154.50;2252.80;;;;;;4824763;29;20471;-67
2022/04/17 04:38:32;;;;;;;5.13;3.40;;;179.20;2252.80;;;;;;4824762;29;20739;-66
2022/04/17 04:40:59;;;;;;;5.28;3.50;;;179.20;2252.80;;;;;;4825019;29;20486;-75
2022/04/17 04:43:25;;;;;;;4.75;3.38;;;;;;;;;;4824939;29;20388;-66
2022/04/17 04:46:06;;;;;;;5.13;3.60;;;;;;;;;;4825062;29;20391;-65
2022/04/17 04:51:27;;;;;;;6.30;4.00;;;;;;;;;;4824694;29;20924;-65
2022/04/17 04:53:56;;;;;;;5.80;4.03;;;179.50;2252.80;;;;;;4824518;29;20400;-64
2022/04/17 04:56:23;;;;;;;6.25;3.83;;;179.50;2227.20;;;;;;4824468;29;20769;-66
2022/04/17 04:58:49;;;;;;;5.57;3.90;;;179.60;2227.20;;;;;;4824404;29;20461;-66
2022/04/17 05:01:15;;;;;;;13.30;7.57;;;179.70;2227.20;;;;;;4824386;29;20404;-66
2022/04/17 05:03:41;;;;;;;8.97;5.97;;;179.80;2227.20;;;;;;4824329;29;20376;-65
2022/04/17 05:06:07;;;;;;;5.03;3.63;;;179.80;2227.20;;;;;;4823530;29;20482;-64
2022/04/17 05:08:34;;;;;;;4.60;3.70;;;179.80;2201.60;;;;;;4824306;29;20492;-65
2022/04/17 05:11:00;;;;;;;6.60;4.20;;;180.00;2227.20;;;;;;4824208;29;20523;-66
2022/04/17 05:13:26;;;;;;;4.95;3.53;;;204.80;2176.00;;;;;;4824258;29;20400;-65
2022/04/17 05:15:52;;;;;;;5.47;3.20;;;204.90;2176.00;;;;;;4824151;29;20400;-67
2022/04/17 05:18:18;;;;;;;5.70;3.47;;;205.20;2124.80;;;;;;4824114;29;20423;-65
2022/04/17 05:20:44;;;;;;;5.80;3.42;;;205.30;2099.20;;;;;;4824141;29;20501;-65
2022/04/17 05:23:26;;;;;;;4.85;3.42;;;205.60;2073.60;;;;;;4823173;29;20897;-63
2022/04/17 05:25:56;;;;;;;6.00;3.17;;;205.40;2022.40;;;;;;4824433;29;20403;-74
2022/04/17 05:28:23;;;;;;;5.47;3.50;;;205.50;2048.00;;;;;;4824389;29;20415;-65
2022/04/17 05:30:49;;;;;;;8.77;3.75;;;205.60;2022.40;;;;;;4824178;29;20423;-65
2022/04/17 05:33:20;;;;;;;6.03;3.70;;;230.40;1996.80;;;;;;4823901;29;20896;-66
2022/04/17 05:35:47;;;;;;;6.25;3.10;;;230.40;1996.80;;;;;;4824144;29;20528;-66
2022/04/17 05:38:13;;;;;;;5.23;3.20;;;230.40;1996.80;;;;;;4824024;29;20460;-64
2022/04/17 05:40:41;;;;;;;5.68;3.28;;;205.70;1971.20;;;;;;4824081;29;20388;-66
2022/04/17 05:43:08;;;;;;;4.97;3.35;;;230.50;1996.80;;;;;;4823827;29;20404;-68
2022/04/17 05:45:34;;;;;;;6.10;3.38;;;230.50;1996.80;;;;;;4823804;29;20734;-65
2022/04/17 05:48:01;;;;;;;5.80;3.60;;;230.40;1996.80;;;;;;4823906;29;20428;-67
2022/04/17 05:50:28;;;;;;;4.50;3.40;;;205.70;1996.80;;;;;;4817043;29;20514;-68
2022/04/17 05:52:54;;;;;;;4.78;3.50;;;230.40;1971.20;;;;;;4820482;29;20414;-72
2022/04/17 05:55:20;;;;;;;5.13;3.65;;;230.40;1971.20;;;;;;4825252;29;20411;-78
2022/04/17 05:57:46;;;;;;;5.03;3.10;;;230.50;1971.20;;;;;;4826605;29;20426;-71
2022/04/17 06:00:13;;;;;;;6.18;3.63;;;230.50;1971.20;;;;;;4827851;29;20404;-77
2022/04/17 06:02:39;;;;;;;15.50;10.18;;;230.40;1945.60;;;;;;4809500;29;20416;-77
2022/04/17 06:05:06;;;;;;;5.38;3.65;;;230.40;1996.80;;;;;;4825890;29;20936;-74
2022/04/17 06:07:32;;;;;;;5.15;3.50;;;230.40;1945.60;;;;;;4825783;29;20419;-80
2022/04/17 06:10:16;;;;;;;6.97;4.77;;;230.50;1945.60;;;;;;4825179;29;20420;-79
2022/04/17 06:12:42;;;;;;;4.95;3.80;;;230.60;1920.00;;;;;;4824648;29;20976;-76
2022/04/17 06:15:09;;;;;;;4.95;3.38;;;230.70;1945.60;;;;;;4818401;29;20420;-83
2022/04/17 06:17:41;;;;;;;5.03;3.50;;;230.70;1920.00;;;;;;4816556;29;20421;-69
2022/04/17 06:20:08;;;;;;;4.88;3.33;;;230.70;1920.00;;;;;;4817727;29;20396;-79
2022/04/17 06:22:35;;;;;;;6.13;3.65;;;230.80;1945.60;;;;;;4820984;29;20959;-68
2022/04/17 06:25:06;;;;;;;4.30;3.38;;;230.90;1920.00;;;;;;4818684;29;20410;-77
2022/04/17 06:27:40;;;;;;;5.88;3.47;;;231.00;1868.80;;;;;;4818162;29;20392;-76
2022/04/17 06:30:10;;;;;;;5.45;3.15;;;231.00;1868.80;;;;;;4828958;29;20451;-78
2022/04/17 06:32:36;;;;;;;5.07;3.38;;;231.10;1843.20;;;;;;4830224;29;20906;-73
2022/04/17 06:35:02;;;;;;;5.78;3.90;;;231.20;1843.20;;;;;;4827147;29;20400;-77
2022/04/17 06:37:28;;;;;;;5.63;3.83;;;231.10;1843.20;;;;;;4828357;29;20468;-75
2022/04/17 06:39:57;;;;;;;4.82;3.20;;;231.30;1817.60;;;;;;4828065;29;20398;-75
2022/04/17 06:42:23;;;;;;;5.68;3.60;;;231.30;1792.00;;;;;;4826505;29;20400;-70
2022/04/17 06:44:49;;;;;;;5.43;3.45;;;256.10;1792.00;;;;;;4829292;29;20882;-75
2022/04/17 06:47:14;;;;;;;5.15;3.40;;;256.20;1766.40;;;;;;4827619;29;20451;-66
2022/04/17 06:49:40;;;;;;;4.20;2.97;;;256.30;1792.00;;;;;;4828895;29;20399;-68
2022/04/17 06:52:06;;;;;;;6.82;3.78;;;256.30;1766.40;;;;;;4828687;29;20480;-76
2022/04/17 06:54:32;;;;;;;5.00;3.30;;;256.50;1766.40;;;;;;4828886;29;20576;-75
2022/04/17 06:56:58;;;;;;;3.95;3.28;;;256.80;1740.80;;;;;;4829657;29;20400;-75
2022/04/17 06:59:24;;;;;;;7.50;3.47;;;256.70;1715.20;;;;;;4829364;29;20395;-72
2022/04/17 07:01:49;;;;;;;6.45;3.45;;;256.90;1715.20;;;;;;4828526;29;20453;-77
2022/04/17 07:04:18;;;;;;;4.43;3.03;;;281.80;1689.60;;;;;;4828755;29;20487;-68
2022/04/17 07:06:44;;;;;;;6.68;3.20;;;281.90;1664.00;;;;;;4829054;29;20400;-67
2022/04/17 07:09:10;;;;;;;10.68;4.53;;;281.80;1612.80;;;;;;4832881;29;20392;-74
2022/04/17 07:11:36;;;;;;;11.93;10.27;;;282.00;1612.80;;;;;;4835700;29;20422;-77
2022/04/17 07:14:03;;;;;;;9.52;5.55;;;282.30;2150.40;;;;;;4827222;29;20398;-66
2022/04/17 07:16:28;;;;;;;6.07;4.40;;;282.50;1587.20;;;;;;4826525;29;20496;-65
2022/04/17 07:18:54;;;;;;;14.88;9.43;;;282.40;1587.20;;;;;;4825351;29;20419;-68
2022/04/17 07:21:20;;;;;;;8.70;6.43;;;307.50;1561.60;;;;;;4826425;29;20406;-67
2022/04/17 07:23:47;;;;;;;6.60;4.07;;;307.90;1484.80;;;;;;4826382;29;20396;-65
2022/04/17 07:26:14;;;;;;;11.30;5.88;;;332.80;1510.40;;;;;;4825275;29;20461;-77
2022/04/17 07:28:40;;;;;;;7.75;3.60;;;333.00;1433.60;;;;;;4823744;29;20898;-83
2022/04/17 07:31:06;;;;;;;5.15;2.65;;;333.20;1433.60;;;;;;4824232;29;20465;-66
2022/04/17 07:33:32;;;;;;;10.55;4.03;;;333.30;1408.00;;;;;;4824461;29;20452;-67
2022/04/17 07:35:57;;;;;;;7.18;3.35;;;333.60;1459.20;;;;;;4824486;29;20404;-69
2022/04/17 07:38:23;;;;;;;5.53;2.60;;;333.60;1408.00;;;;;;4824382;29;20460;-67
2022/04/17 07:40:49;;;;;;;9.27;5.03;;;333.50;1382.40;;;;;;4824466;29;20816;-82
2022/04/17 07:43:15;;;;;;;5.68;3.10;;;333.40;1433.60;;;;;;4824441;29;20808;-74
2022/04/17 07:45:41;;;;;;;9.83;5.77;;;358.50;1382.40;;;;;;4824506;29;20404;-74
2022/04/17 07:48:07;;;;;;;7.90;3.88;;;358.50;1331.20;;;;;;4824469;29;20397;-82
2022/04/17 07:50:33;;;;;;;7.20;3.88;;;358.50;1331.20;;;;;;4824282;29;20463;-78
2022/04/17 07:53:00;;;;;;;8.45;4.40;;;358.50;1305.60;;;;;;4824458;29;20384;-79
2022/04/17 07:55:26;;;;;;;8.45;4.20;;;358.50;1305.60;;;;;;4824422;29;20427;-75
2022/04/17 08:00:24;;;;;;;7.50;2.63;;;358.90;1305.60;;;;;;4822255;29;20400;-79
2022/04/17 08:03:09;;;;;;;6.55;2.85;;;358.80;1305.60;;;;;;4824356;29;20452;-82
2022/04/17 08:05:40;;;;;;;15.13;3.90;;;359.00;1305.60;;;;;;4823487;29;20404;-83
2022/04/17 08:08:08;;;;;;;6.97;2.70;;;359.20;1254.40;;;;;;4824288;29;20936;-70
2022/04/17 08:10:37;;;;;;;4.63;2.90;;;384.20;1305.60;;;;;;4824147;29;20507;-79
2022/04/17 08:13:04;;;;;;;7.63;2.60;;;409.60;1203.20;;;;;;4822049;29;20784;-76
2022/04/17 08:15:30;;;;;;;4.85;2.35;;;410.30;1152.00;;;;;;4825223;29;20457;-77
2022/04/17 08:17:56;;;;;;;7.20;2.50;;;435.30;1126.40;;;;;;4824823;29;20126;-71
2022/04/17 08:20:22;;;;;;;6.65;3.30;;;435.50;1100.80;;;;;;4824927;29;20109;-68
2022/04/17 08:22:48;;;;;;;13.90;2.97;;;435.80;1049.60;;;;;;4824949;29;20026;-74
2022/04/17 08:25:14;;;;;;;7.00;3.30;;;435.70;1049.60;;;;;;4824817;29;20037;-75
2022/04/17 08:27:47;;;;;;;13.48;3.55;;;436.10;1049.60;;;;;;4824715;29;20092;-72
2022/04/17 08:30:14;;;;;;;6.97;2.80;;;460.80;1049.60;;;;;;4824878;29;20108;-74
2022/04/17 08:32:40;;;;;;;7.53;3.40;;;461.20;998.40;;;;;;4824521;29;20079;-74
2022/04/17 08:35:07;;;;;;;4.00;2.08;;;461.60;1024.00;;;;;;4824622;29;20026;-72
2022/04/17 08:37:33;;;;;;;3.75;2.08;;;486.70;972.80;;;;;;4824782;29;20041;-74
2022/04/17 08:39:58;;;;;;;6.00;1.95;;;486.90;921.60;;;;;;4824330;29;20389;-78
2022/04/17 08:42:26;;;;;;;4.90;2.38;;;487.10;921.60;;;;;;4824457;29;20027;-74
2022/04/17 08:44:52;;;;;;;45.60;5.15;;;512.00;896.00;;;;;;4824453;29;20018;-75
2022/04/17 08:47:19;;;;;;;6.22;2.08;;;487.20;921.60;;;;;;4824296;29;20380;-75
2022/04/17 08:49:47;;;;;;;5.70;2.00;;;512.10;896.00;;;;;;4824383;29;20018;-71
2022/04/17 08:52:15;;;;;;;4.90;1.80;;;512.90;896.00;;;;;;4825219;29;20058;-76
2022/04/17 08:54:46;;;;;;;7.90;2.03;;;512.70;844.80;;;;;;4817882;29;20066;-69
2022/04/17 08:57:12;;;;;;;7.18;2.03;;;487.20;896.00;;;;;;4823004;29;20118;-67
2022/04/17 08:59:38;;;;;;;6.20;2.10;;;486.50;921.60;;;;;;4819340;29;20034;-70
2022/04/17 09:02:10;;;;;;;8.00;2.35;;;486.60;947.20;;;;;;4823024;29;20476;-76
2022/04/17 09:04:38;;;;;;;13.85;3.70;;;461.60;947.20;;;;;;4816452;29;20046;-69
2022/04/17 09:07:09;;;;;;;11.57;2.80;;;461.20;972.80;;;;;;4816576;29;20426;-70
2022/04/17 09:09:48;;;;;;;6.13;1.67;;;461.10;972.80;;;;;;4823121;29;20030;-67
2022/04/17 09:12:21;;;;;;;78.40;6.60;;;461.00;998.40;;;;;;4825641;29;20045;-68
2022/04/17 09:14:47;;;;;;;6.32;2.28;;;436.00;947.20;;;;;;4825364;29;20503;-66
2022/04/17 09:17:13;;;;;;;4.28;1.70;;;436.00;947.20;;;;;;4825234;29;20219;-69
2022/04/17 09:19:39;;;;;;;3.88;1.55;;;435.70;947.20;;;;;;4825106;29;20054;-74
2022/04/17 09:22:07;;;;;;;3.53;1.67;;;435.50;947.20;;;;;;4808799;29;20079;-68
2022/04/17 09:24:37;;;;;;;7.35;1.90;;;435.50;947.20;;;;;;4825224;29;20068;-66
2022/04/17 09:27:05;;;;;;;4.75;2.13;;;435.80;972.80;;;;;;4824723;29;20565;-76
2022/04/17 09:29:33;;;;;;;6.72;1.75;;;435.70;972.80;;;;;;4824911;29;20034;-75
2022/04/17 09:32:06;;;;;;;10.25;2.20;;;435.60;972.80;;;;;;4824948;29;20403;-76
2022/04/17 09:34:43;;;;;;;6.05;2.88;;;435.80;972.80;;;;;;4825066;29;20027;-69
2022/04/17 09:37:22;;;;;;;4.43;3.13;;;435.90;972.80;;;;;;4825024;29;20041;-67
2022/04/17 09:39:52;;;;;;;6.70;1.98;;;436.00;972.80;;;;;;4825000;29;20122;-68
2022/04/17 09:42:25;;;;;;;5.60;1.95;;;435.70;972.80;;;;;;4808475;29;20484;-68
2022/04/17 09:44:54;;;;;;;;;;;435.70;972.80;;;;;;4825535;29;20058;-65
2022/04/17 09:47:26;;;;;;;19.80;2.55;;;436.00;998.40;;;;;;4825015;29;19908;-67
2022/04/17 09:50:08;;;;;;;9.43;2.85;;;435.70;998.40;;;;;;4824829;29;20473;-73
2022/04/17 09:52:40;;;;;;;20.45;3.00;;;435.60;998.40;;;;;;4823268;29;20437;-70
2022/04/17 09:55:07;;;;;;;5.28;2.13;;;435.50;998.40;;;;;;4824647;29;20465;-69
2022/04/17 09:57:35;;;;;;;13.10;2.83;;;435.70;998.40;;;;;;4824636;29;20068;-69
2022/04/17 10:00:12;;;;;;;11.38;2.40;;;435.50;998.40;;;;;;4824673;29;20034;-65
2022/04/17 10:02:39;;;;;;;10.98;2.28;;;435.30;972.80;;;;;;4824683;29;20038;-68
2022/04/17 10:05:15;;;;;;;3.85;2.33;;;410.30;972.80;;;;;;4824669;29;20036;-68
2022/04/17 10:07:42;;;;;;;4.40;1.40;;;410.30;998.40;;;;;;4824669;29;20030;-70
2022/04/17 10:10:11;;;;;;;11.23;2.40;;;410.20;972.80;;;;;;4824468;29;20044;-68
2022/04/17 10:12:40;;;;;;;11.73;2.40;;;410.30;998.40;;;;;;4824805;29;20049;-69
2022/04/17 10:15:10;;;;;;;5.50;1.98;;;410.00;998.40;;;;;;4824536;29;20031;-67
2022/04/17 10:17:44;;;;;;;5.07;1.70;;;410.30;972.80;;;;;;4824818;29;20072;-69
2022/04/17 10:20:12;;;;;;;12.73;2.72;;;410.30;998.40;;;;;;4824811;29;20499;-69
2022/04/17 10:22:39;;;;;;;7.07;3.05;;;410.40;998.40;;;;;;4824747;29;20035;-71
2022/04/17 10:25:09;;;;;;;8.10;2.03;;;410.50;998.40;;;;;;4824412;29;20037;-69
2022/04/17 10:27:45;;;;;;;7.47;3.03;;;410.40;972.80;;;;;;4824595;29;20034;-68
2022/04/17 10:30:15;;;;;;;8.07;2.35;;;435.40;998.40;;;;;;4824329;29;20035;-69
2022/04/17 10:33:04;;;;;;;13.65;2.67;;;435.70;947.20;;;;;;4824170;29;20129;-70
2022/04/17 10:35:58;;;;;;;12.05;3.17;;;435.80;972.80;;;;;;4822779;29;20034;-68
2022/04/17 10:38:26;;;;;;;13.88;4.47;;;435.90;947.20;;;;;;4824294;29;20030;-69
2022/04/17 10:41:06;;;;;;;12.05;3.80;;;435.80;947.20;;;;;;4824260;29;20030;-68
2022/04/17 10:43:51;;;;;;;34.22;4.65;;;435.90;947.20;;;;;;4824216;29;20031;-67
2022/04/17 10:46:21;;;;;;;10.48;2.67;;;435.50;972.80;;;;;;4823988;29;20109;-77
2022/04/17 10:48:55;;;;;;;27.40;3.08;;;435.40;972.80;;;;;;4824130;29;20034;-68
2022/04/17 10:51:31;;;;;;;26.58;3.80;;;410.50;998.40;;;;;;4824205;29;20039;-66
2022/04/17 10:54:03;;;;;;;13.60;6.50;;;435.30;972.80;;;;;;4824044;29;20034;-66
2022/04/17 10:56:33;;;;;;;6.63;2.72;;;435.40;998.40;;;;;;4824391;29;20030;-70
2022/04/17 10:59:01;;;;;;;8.63;3.58;;;435.50;998.40;;;;;;4823248;29;20031;-73
2022/04/17 11:01:59;;;;;;;6.40;2.67;;;435.60;947.20;;;;;;4816180;29;20060;-76
2022/04/17 11:04:29;;;;;;;7.45;4.35;;;436.00;947.20;;;;;;4815480;29;20038;-75
2022/04/17 11:07:04;;;;;;;7.32;4.93;;;436.10;947.20;;;;;;4819330;29;20027;-74
2022/04/17 11:09:30;;;;;;;12.93;6.25;;;460.80;972.80;;;;;;4816952;29;20062;-77
2022/04/17 11:12:18;;;;;;;10.73;5.95;;;436.00;921.60;;;;;;4818724;29;20091;-70
2022/04/17 11:15:02;;;;;;;11.18;4.55;;;460.80;947.20;;;;;;4821017;29;20041;-68
2022/04/17 11:17:29;;;;;;;12.95;5.45;;;436.10;947.20;;;;;;4826995;29;20385;-69
2022/04/17 11:19:57;;;;;;;37.78;7.07;;;460.80;998.40;;;;;;4816942;29;20075;-66
2022/04/17 11:22:32;;;;;;;10.88;3.00;;;460.90;1100.80;;;;;;4826954;29;20091;-70
2022/04/17 11:24:58;;;;;;;29.55;3.65;;;461.30;1049.60;;;;;;4826950;29;20033;-74
2022/04/17 11:27:45;;;;;;;29.30;3.72;;;461.70;998.40;;;;;;4826840;29;20029;-72
2022/04/17 11:30:19;;;;;;;17.50;2.00;;;461.70;921.60;;;;;;4820144;29;20049;-63
2022/04/17 11:32:47;;;;;;;7.28;1.83;;;461.40;896.00;;;;;;4819379;29;20125;-68
2022/04/17 11:35:19;;;;;;;2.95;1.70;;;461.20;947.20;;;;;;4827598;29;20109;-66
2022/04/17 11:37:53;;;;;;;12.77;3.08;;;461.20;921.60;;;;;;4826739;29;20053;-74
2022/04/17 11:40:20;;;;;;;17.30;2.47;;;461.50;921.60;;;;;;4808724;29;20031;-63
2022/04/17 11:42:50;;;;;;;4.03;2.20;;;461.40;921.60;;;;;;4808707;29;20370;-68
2022/04/17 11:45:25;;;;;;;6.72;2.10;;;461.40;921.60;;;;;;4808931;29;20451;-73
2022/04/17 11:47:53;;;;;;;8.73;2.28;;;461.30;921.60;;;;;;4808945;29;20033;-66
2022/04/17 11:50:26;;;;;;;6.00;2.35;;;461.50;921.60;;;;;;4820825;29;20027;-66
2022/04/17 11:52:54;;;;;;;5.85;1.83;;;461.50;921.60;;;;;;4827200;29;20030;-64
2022/04/17 11:55:24;;;;;;;6.45;1.90;;;461.50;921.60;;;;;;4826590;29;20365;-66
2022/04/17 11:57:51;;;;;;;5.78;2.20;;;461.30;921.60;;;;;;4826772;29;20042;-64
2022/04/17 12:00:17;;;;;;;10.45;4.65;;;461.30;896.00;;;;;;4826570;29;20027;-73
2022/04/17 12:02:42;;;;;;;8.00;2.10;;;461.30;921.60;;;;;;4826288;29;20110;-74
2022/04/17 12:05:12;;;;;;;6.43;1.90;;;461.50;921.60;;;;;;4826309;29;20122;-63
2022/04/17 12:07:38;;;;;;;7.50;3.45;;;461.50;896.00;;;;;;4822588;29;20486;-69
2022/04/17 12:10:14;;;;;;;12.32;3.08;;;461.50;921.60;;;;;;4810322;29;20114;-65
2022/04/17 12:12:45;;;;;;;8.45;3.70;;;461.50;921.60;;;;;;4808902;29;20036;-67
2022/04/17 12:15:13;;;;;;;5.95;3.25;;;461.50;896.00;;;;;;4807477;29;20409;-70
2022/04/17 12:17:40;;;;;;;5.47;2.10;;;461.60;896.00;;;;;;4808247;29;20027;-72
2022/04/17 12:20:12;;;;;;;12.95;4.18;;;486.40;896.00;;;;;;4808109;29;20034;-73
2022/04/17 12:22:39;;;;;;;11.60;4.07;;;461.70;921.60;;;;;;4808078;29;20027;-73
2022/04/17 12:25:16;;;;;;;9.93;4.25;;;461.60;896.00;;;;;;4807918;29;20117;-62
2022/04/17 12:27:42;;;;;;;13.20;4.03;;;461.70;896.00;;;;;;4808069;29;20496;-73
2022/04/17 12:30:09;;;;;;;19.48;6.80;;;486.70;896.00;;;;;;4791566;29;20027;-75
2022/04/17 12:32:43;;;;;;;8.70;3.50;;;486.40;870.40;;;;;;4807555;29;20200;-72
2022/04/17 12:35:09;;;;;;;16.00;5.10;;;486.50;870.40;;;;;;4807828;29;20027;-76
2022/04/17 12:37:35;;;;;;;13.90;4.43;;;486.60;870.40;;;;;;4807707;29;20031;-74
2022/04/17 12:40:08;;;;;;;13.57;4.45;;;486.70;870.40;;;;;;4807589;29;20102;-68
2022/04/17 12:42:34;;;;;;;10.75;4.93;;;486.60;844.80;;;;;;4807684;29;20051;-65
2022/04/17 12:45:00;;;;;;;15.55;4.38;;;486.80;870.40;;;;;;4807662;29;20035;-64
2022/04/17 12:47:25;;;;;;;9.82;2.72;;;486.80;870.40;;;;;;4807574;29;20045;-71
2022/04/17 12:50:01;;;;;;;15.25;3.03;;;486.80;870.40;;;;;;4807486;29;20027;-64
2022/04/17 12:52:27;;;;;;;15.35;4.82;;;487.00;870.40;;;;;;4807715;29;20039;-64
2022/04/17 12:54:56;;;;;;;10.52;2.45;;;487.20;870.40;;;;;;4807451;29;20029;-62
2022/04/17 12:57:22;;;;;;;7.55;2.55;;;487.10;844.80;;;;;;4807530;29;20100;-66
2022/04/17 12:59:51;;;;;;;7.32;2.80;;;487.10;870.40;;;;;;4807351;29;20027;-64